sensor_id;sensor_type;location;lat;lon;timestamp;P1;durP1;ratioP1;P2;durP2;ratioP2
69417;SDS011;56610;48.872;2.400;2023-06-14T00:01:51;4.45;;;4.05;;
69417;SDS011;56610;48.872;2.400;2023-06-14T00:04:17;4.57;;;4.18;;
69417;SDS011;56610;48.872;2.400;2023-06-14T00:06:43;4.78;;;4.32;;
69417;SDS011;56610;48.872;2.400;2023-06-14T00:09:15;5.30;;;4.00;;
69417;SDS011;56610;48.872;2.400;2023-06-14T00:11:42;4.70;;;4.30;;
69417;SDS011;56610;48.872;2.400;2023-06-14T00:14:09;5.45;;;4.65;;
69417;SDS011;56610;48.872;2.400;2023-06-14T00:16:35;4.85;;;4.45;;
69417;SDS011;56610;48.872;2.400;2023-06-14T00:19:02;4.78;;;4.28;;
69417;SDS011;56610;48.872;2.400;2023-06-14T00:21:30;5.20;;;4.68;;
69417;SDS011;56610;48.872;2.400;2023-06-14T00:24:00;4.80;;;4.40;;
69417;SDS011;56610;48.872;2.400;2023-06-14T00:26:26;5.00;;;4.60;;
69417;SDS011;56610;48.872;2.400;2023-06-14T00:28:52;5.35;;;4.75;;
69417;SDS011;56610;48.872;2.400;2023-06-14T00:31:18;4.97;;;4.35;;
69417;SDS011;56610;48.872;2.400;2023-06-14T00:33:43;4.63;;;4.22;;
69417;SDS011;56610;48.872;2.400;2023-06-14T00:36:10;4.97;;;4.32;;
69417;SDS011;56610;48.872;2.400;2023-06-14T00:38:35;4.88;;;4.45;;
69417;SDS011;56610;48.872;2.400;2023-06-14T00:41:01;5.90;;;5.20;;
69417;SDS011;56610;48.872;2.400;2023-06-14T00:43:26;5.18;;;4.78;;
69417;SDS011;56610;48.872;2.400;2023-06-14T00:45:52;6.15;;;4.60;;
69417;SDS011;56610;48.872;2.400;2023-06-14T00:48:17;4.78;;;4.38;;
69417;SDS011;56610;48.872;2.400;2023-06-14T00:50:44;4.90;;;4.50;;
69417;SDS011;56610;48.872;2.400;2023-06-14T00:53:13;5.13;;;4.63;;
69417;SDS011;56610;48.872;2.400;2023-06-14T00:55:42;4.97;;;4.57;;
69417;SDS011;56610;48.872;2.400;2023-06-14T00:58:08;5.03;;;4.63;;
69417;SDS011;56610;48.872;2.400;2023-06-14T01:00:35;4.80;;;4.40;;
69417;SDS011;56610;48.872;2.400;2023-06-14T01:03:01;4.85;;;4.45;;
69417;SDS011;56610;48.872;2.400;2023-06-14T01:05:27;5.07;;;4.53;;
69417;SDS011;56610;48.872;2.400;2023-06-14T01:13:08;6.10;;;4.63;;
69417;SDS011;56610;48.872;2.400;2023-06-14T01:15:39;5.20;;;4.80;;
69417;SDS011;56610;48.872;2.400;2023-06-14T01:18:08;9.68;;;4.53;;
69417;SDS011;56610;48.872;2.400;2023-06-14T01:20:42;5.22;;;4.55;;
69417;SDS011;56610;48.872;2.400;2023-06-14T01:23:10;5.10;;;4.70;;
69417;SDS011;56610;48.872;2.400;2023-06-14T01:25:39;5.00;;;4.53;;
69417;SDS011;56610;48.872;2.400;2023-06-14T01:28:06;5.20;;;4.70;;
69417;SDS011;56610;48.872;2.400;2023-06-14T01:30:36;4.95;;;4.47;;
69417;SDS011;56610;48.872;2.400;2023-06-14T01:33:03;4.55;;;4.15;;
69417;SDS011;56610;48.872;2.400;2023-06-14T01:35:30;6.15;;;4.32;;
69417;SDS011;56610;48.872;2.400;2023-06-14T01:37:56;4.82;;;4.43;;
69417;SDS011;56610;48.872;2.400;2023-06-14T01:40:23;6.03;;;5.00;;
69417;SDS011;56610;48.872;2.400;2023-06-14T01:42:50;5.50;;;4.47;;
69417;SDS011;56610;48.872;2.400;2023-06-14T01:45:16;4.50;;;4.18;;
69417;SDS011;56610;48.872;2.400;2023-06-14T01:47:43;4.90;;;4.50;;
69417;SDS011;56610;48.872;2.400;2023-06-14T01:50:10;5.53;;;4.78;;
69417;SDS011;56610;48.872;2.400;2023-06-14T01:52:39;5.80;;;4.82;;
69417;SDS011;56610;48.872;2.400;2023-06-14T01:55:04;5.30;;;4.90;;
69417;SDS011;56610;48.872;2.400;2023-06-14T01:57:31;5.45;;;4.95;;
69417;SDS011;56610;48.872;2.400;2023-06-14T01:59:57;5.90;;;4.40;;
69417;SDS011;56610;48.872;2.400;2023-06-14T02:02:22;4.72;;;4.32;;
69417;SDS011;56610;48.872;2.400;2023-06-14T02:04:48;5.47;;;4.97;;
69417;SDS011;56610;48.872;2.400;2023-06-14T02:07:13;5.30;;;4.90;;
69417;SDS011;56610;48.872;2.400;2023-06-14T02:09:40;6.28;;;4.80;;
69417;SDS011;56610;48.872;2.400;2023-06-14T02:12:06;5.20;;;4.70;;
69417;SDS011;56610;48.872;2.400;2023-06-14T02:14:32;6.60;;;4.57;;
69417;SDS011;56610;48.872;2.400;2023-06-14T02:16:58;5.40;;;4.90;;
69417;SDS011;56610;48.872;2.400;2023-06-14T02:19:25;5.38;;;4.88;;
69417;SDS011;56610;48.872;2.400;2023-06-14T02:21:51;5.05;;;4.65;;
69417;SDS011;56610;48.872;2.400;2023-06-14T02:24:17;5.28;;;4.15;;
69417;SDS011;56610;48.872;2.400;2023-06-14T02:26:43;6.85;;;4.63;;
69417;SDS011;56610;48.872;2.400;2023-06-14T02:29:09;4.95;;;4.50;;
69417;SDS011;56610;48.872;2.400;2023-06-14T02:31:37;5.00;;;4.57;;
69417;SDS011;56610;48.872;2.400;2023-06-14T02:34:03;4.88;;;4.47;;
69417;SDS011;56610;48.872;2.400;2023-06-14T02:36:29;5.35;;;4.80;;
69417;SDS011;56610;48.872;2.400;2023-06-14T02:38:55;5.10;;;4.70;;
69417;SDS011;56610;48.872;2.400;2023-06-14T02:41:22;5.32;;;4.68;;
69417;SDS011;56610;48.872;2.400;2023-06-14T02:43:49;6.15;;;4.82;;
69417;SDS011;56610;48.872;2.400;2023-06-14T02:46:15;5.30;;;4.70;;
69417;SDS011;56610;48.872;2.400;2023-06-14T02:48:40;5.40;;;4.68;;
69417;SDS011;56610;48.872;2.400;2023-06-14T02:51:06;5.45;;;4.97;;
69417;SDS011;56610;48.872;2.400;2023-06-14T02:53:33;4.70;;;4.25;;
69417;SDS011;56610;48.872;2.400;2023-06-14T02:55:59;4.97;;;4.57;;
69417;SDS011;56610;48.872;2.400;2023-06-14T02:58:24;6.00;;;5.22;;
69417;SDS011;56610;48.872;2.400;2023-06-14T03:00:50;4.85;;;4.45;;
69417;SDS011;56610;48.872;2.400;2023-06-14T03:03:17;5.22;;;4.78;;
69417;SDS011;56610;48.872;2.400;2023-06-14T03:05:45;5.07;;;4.45;;
69417;SDS011;56610;48.872;2.400;2023-06-14T03:08:14;5.50;;;5.00;;
69417;SDS011;56610;48.872;2.400;2023-06-14T03:10:48;6.93;;;5.25;;
69417;SDS011;56610;48.872;2.400;2023-06-14T03:13:14;5.13;;;4.63;;
69417;SDS011;56610;48.872;2.400;2023-06-14T03:15:41;5.10;;;4.60;;
69417;SDS011;56610;48.872;2.400;2023-06-14T03:18:08;5.25;;;4.75;;
69417;SDS011;56610;48.872;2.400;2023-06-14T03:20:37;6.03;;;4.93;;
69417;SDS011;56610;48.872;2.400;2023-06-14T03:23:03;5.03;;;4.63;;
69417;SDS011;56610;48.872;2.400;2023-06-14T03:27:58;5.53;;;4.82;;
69417;SDS011;56610;48.872;2.400;2023-06-14T03:30:23;5.63;;;5.03;;
69417;SDS011;56610;48.872;2.400;2023-06-14T03:32:49;6.28;;;4.93;;
69417;SDS011;56610;48.872;2.400;2023-06-14T03:35:17;4.65;;;4.25;;
69417;SDS011;56610;48.872;2.400;2023-06-14T03:37:44;5.38;;;4.72;;
69417;SDS011;56610;48.872;2.400;2023-06-14T03:40:11;5.80;;;4.93;;
69417;SDS011;56610;48.872;2.400;2023-06-14T03:42:38;5.65;;;5.15;;
69417;SDS011;56610;48.872;2.400;2023-06-14T03:45:04;5.80;;;5.20;;
69417;SDS011;56610;48.872;2.400;2023-06-14T03:47:31;5.88;;;5.28;;
69417;SDS011;56610;48.872;2.400;2023-06-14T03:49:57;5.50;;;5.00;;
69417;SDS011;56610;48.872;2.400;2023-06-14T03:52:22;6.82;;;5.25;;
69417;SDS011;56610;48.872;2.400;2023-06-14T03:54:48;5.47;;;4.97;;
69417;SDS011;56610;48.872;2.400;2023-06-14T03:57:14;5.43;;;4.95;;
69417;SDS011;56610;48.872;2.400;2023-06-14T03:59:40;5.68;;;5.18;;
69417;SDS011;56610;48.872;2.400;2023-06-14T04:02:06;6.63;;;4.93;;
69417;SDS011;56610;48.872;2.400;2023-06-14T04:04:32;6.65;;;4.53;;
69417;SDS011;56610;48.872;2.400;2023-06-14T04:09:28;5.20;;;4.75;;
69417;SDS011;56610;48.872;2.400;2023-06-14T04:11:55;5.15;;;4.30;;
69417;SDS011;56610;48.872;2.400;2023-06-14T04:14:21;4.97;;;4.43;;
69417;SDS011;56610;48.872;2.400;2023-06-14T04:16:47;6.00;;;4.68;;
69417;SDS011;56610;48.872;2.400;2023-06-14T04:19:14;5.07;;;4.45;;
69417;SDS011;56610;48.872;2.400;2023-06-14T04:21:40;4.90;;;4.20;;
69417;SDS011;56610;48.872;2.400;2023-06-14T04:24:06;5.13;;;4.65;;
69417;SDS011;56610;48.872;2.400;2023-06-14T04:26:32;5.38;;;4.88;;
69417;SDS011;56610;48.872;2.400;2023-06-14T04:28:59;5.20;;;4.53;;
69417;SDS011;56610;48.872;2.400;2023-06-14T04:31:28;5.40;;;4.85;;
69417;SDS011;56610;48.872;2.400;2023-06-14T04:33:54;5.80;;;5.00;;
69417;SDS011;56610;48.872;2.400;2023-06-14T04:36:21;7.15;;;5.13;;
69417;SDS011;56610;48.872;2.400;2023-06-14T04:38:47;5.40;;;4.90;;
69417;SDS011;56610;48.872;2.400;2023-06-14T04:41:14;5.47;;;4.70;;
69417;SDS011;56610;48.872;2.400;2023-06-14T04:43:40;6.18;;;5.20;;
69417;SDS011;56610;48.872;2.400;2023-06-14T04:46:08;6.40;;;5.07;;
69417;SDS011;56610;48.872;2.400;2023-06-14T04:48:35;5.88;;;5.15;;
69417;SDS011;56610;48.872;2.400;2023-06-14T04:51:00;5.75;;;5.07;;
69417;SDS011;56610;48.872;2.400;2023-06-14T04:53:28;5.53;;;5.10;;
69417;SDS011;56610;48.872;2.400;2023-06-14T04:55:54;6.85;;;5.45;;
69417;SDS011;56610;48.872;2.400;2023-06-14T04:58:20;5.88;;;5.07;;
69417;SDS011;56610;48.872;2.400;2023-06-14T05:00:45;5.13;;;4.60;;
69417;SDS011;56610;48.872;2.400;2023-06-14T05:03:11;4.95;;;4.55;;
69417;SDS011;56610;48.872;2.400;2023-06-14T05:05:38;5.72;;;5.22;;
69417;SDS011;56610;48.872;2.400;2023-06-14T05:08:05;5.25;;;4.78;;
69417;SDS011;56610;48.872;2.400;2023-06-14T05:10:30;6.25;;;5.15;;
69417;SDS011;56610;48.872;2.400;2023-06-14T05:12:56;5.85;;;5.10;;
69417;SDS011;56610;48.872;2.400;2023-06-14T05:15:22;6.10;;;5.60;;
69417;SDS011;56610;48.872;2.400;2023-06-14T05:17:50;5.93;;;5.35;;
69417;SDS011;56610;48.872;2.400;2023-06-14T05:20:20;5.72;;;4.93;;
69417;SDS011;56610;48.872;2.400;2023-06-14T05:22:50;5.75;;;4.90;;
69417;SDS011;56610;48.872;2.400;2023-06-14T05:25:22;6.88;;;5.15;;
69417;SDS011;56610;48.872;2.400;2023-06-14T05:27:48;5.70;;;5.03;;
69417;SDS011;56610;48.872;2.400;2023-06-14T05:30:14;6.22;;;5.13;;
69417;SDS011;56610;48.872;2.400;2023-06-14T05:32:40;6.10;;;4.82;;
69417;SDS011;56610;48.872;2.400;2023-06-14T05:35:07;5.30;;;4.70;;
69417;SDS011;56610;48.872;2.400;2023-06-14T05:37:33;6.30;;;5.70;;
69417;SDS011;56610;48.872;2.400;2023-06-14T05:39:58;7.55;;;5.55;;
69417;SDS011;56610;48.872;2.400;2023-06-14T05:42:24;7.00;;;5.50;;
69417;SDS011;56610;48.872;2.400;2023-06-14T05:44:49;5.28;;;4.70;;
69417;SDS011;56610;48.872;2.400;2023-06-14T05:47:15;5.63;;;5.13;;
69417;SDS011;56610;48.872;2.400;2023-06-14T05:49:41;5.13;;;4.63;;
69417;SDS011;56610;48.872;2.400;2023-06-14T05:52:07;5.97;;;4.60;;
69417;SDS011;56610;48.872;2.400;2023-06-14T05:54:33;5.40;;;4.90;;
69417;SDS011;56610;48.872;2.400;2023-06-14T05:56:58;5.82;;;5.25;;
69417;SDS011;56610;48.872;2.400;2023-06-14T05:59:26;4.93;;;4.53;;
69417;SDS011;56610;48.872;2.400;2023-06-14T06:01:52;5.90;;;5.38;;
69417;SDS011;56610;48.872;2.400;2023-06-14T06:04:18;4.68;;;4.28;;
69417;SDS011;56610;48.872;2.400;2023-06-14T06:06:44;5.82;;;4.68;;
69417;SDS011;56610;48.872;2.400;2023-06-14T06:09:10;6.00;;;4.50;;
69417;SDS011;56610;48.872;2.400;2023-06-14T06:11:35;5.30;;;4.80;;
69417;SDS011;56610;48.872;2.400;2023-06-14T06:14:01;7.15;;;4.57;;
69417;SDS011;56610;48.872;2.400;2023-06-14T06:16:26;6.55;;;4.82;;
69417;SDS011;56610;48.872;2.400;2023-06-14T06:18:52;6.53;;;4.82;;
69417;SDS011;56610;48.872;2.400;2023-06-14T06:21:17;7.13;;;5.10;;
69417;SDS011;56610;48.872;2.400;2023-06-14T06:23:43;6.32;;;5.13;;
69417;SDS011;56610;48.872;2.400;2023-06-14T06:26:09;7.07;;;4.93;;
69417;SDS011;56610;48.872;2.400;2023-06-14T06:28:34;5.75;;;5.00;;
69417;SDS011;56610;48.872;2.400;2023-06-14T06:31:00;7.70;;;4.88;;
69417;SDS011;56610;48.872;2.400;2023-06-14T06:33:25;6.18;;;4.75;;
69417;SDS011;56610;48.872;2.400;2023-06-14T06:35:51;8.02;;;6.07;;
69417;SDS011;56610;48.872;2.400;2023-06-14T06:38:17;5.47;;;4.78;;
69417;SDS011;56610;48.872;2.400;2023-06-14T06:40:43;5.43;;;4.93;;
69417;SDS011;56610;48.872;2.400;2023-06-14T06:43:09;5.03;;;4.63;;
69417;SDS011;56610;48.872;2.400;2023-06-14T06:45:38;5.65;;;5.10;;
69417;SDS011;56610;48.872;2.400;2023-06-14T06:48:04;6.45;;;4.30;;
69417;SDS011;56610;48.872;2.400;2023-06-14T06:50:30;6.80;;;4.55;;
69417;SDS011;56610;48.872;2.400;2023-06-14T06:52:56;5.68;;;4.50;;
69417;SDS011;56610;48.872;2.400;2023-06-14T06:55:22;6.05;;;4.50;;
69417;SDS011;56610;48.872;2.400;2023-06-14T06:57:48;7.47;;;4.57;;
69417;SDS011;56610;48.872;2.400;2023-06-14T07:00:15;6.68;;;4.90;;
69417;SDS011;56610;48.872;2.400;2023-06-14T07:02:41;8.60;;;5.20;;
69417;SDS011;56610;48.872;2.400;2023-06-14T07:05:07;5.88;;;5.05;;
69417;SDS011;56610;48.872;2.400;2023-06-14T07:07:33;6.43;;;4.55;;
69417;SDS011;56610;48.872;2.400;2023-06-14T07:09:59;5.90;;;4.65;;
69417;SDS011;56610;48.872;2.400;2023-06-14T07:12:25;5.40;;;4.88;;
69417;SDS011;56610;48.872;2.400;2023-06-14T07:14:51;9.23;;;5.38;;
69417;SDS011;56610;48.872;2.400;2023-06-14T07:17:16;6.40;;;4.93;;
69417;SDS011;56610;48.872;2.400;2023-06-14T07:19:42;6.32;;;4.72;;
69417;SDS011;56610;48.872;2.400;2023-06-14T07:22:08;7.13;;;4.75;;
69417;SDS011;56610;48.872;2.400;2023-06-14T07:24:33;7.40;;;4.20;;
69417;SDS011;56610;48.872;2.400;2023-06-14T07:27:01;6.88;;;4.78;;
69417;SDS011;56610;48.872;2.400;2023-06-14T07:29:28;5.97;;;4.20;;
69417;SDS011;56610;48.872;2.400;2023-06-14T07:31:53;7.38;;;4.40;;
69417;SDS011;56610;48.872;2.400;2023-06-14T07:34:19;7.63;;;4.78;;
69417;SDS011;56610;48.872;2.400;2023-06-14T07:36:44;6.55;;;4.32;;
69417;SDS011;56610;48.872;2.400;2023-06-14T07:39:11;4.50;;;3.97;;
69417;SDS011;56610;48.872;2.400;2023-06-14T07:41:36;5.80;;;4.03;;
69417;SDS011;56610;48.872;2.400;2023-06-14T07:44:02;6.47;;;4.10;;
69417;SDS011;56610;48.872;2.400;2023-06-14T07:46:28;6.15;;;4.13;;
69417;SDS011;56610;48.872;2.400;2023-06-14T07:48:53;7.28;;;3.95;;
69417;SDS011;56610;48.872;2.400;2023-06-14T07:51:19;7.97;;;3.92;;
69417;SDS011;56610;48.872;2.400;2023-06-14T07:53:44;4.85;;;4.05;;
69417;SDS011;56610;48.872;2.400;2023-06-14T07:56:11;5.53;;;4.40;;
69417;SDS011;56610;48.872;2.400;2023-06-14T07:58:37;5.22;;;4.70;;
69417;SDS011;56610;48.872;2.400;2023-06-14T08:01:02;6.53;;;4.30;;
69417;SDS011;56610;48.872;2.400;2023-06-14T08:03:31;4.70;;;3.45;;
69417;SDS011;56610;48.872;2.400;2023-06-14T08:05:57;5.13;;;3.70;;
69417;SDS011;56610;48.872;2.400;2023-06-14T08:08:23;5.95;;;4.10;;
69417;SDS011;56610;48.872;2.400;2023-06-14T08:10:48;5.35;;;4.20;;
69417;SDS011;56610;48.872;2.400;2023-06-14T08:13:14;6.72;;;3.88;;
69417;SDS011;56610;48.872;2.400;2023-06-14T08:15:39;5.05;;;3.92;;
69417;SDS011;56610;48.872;2.400;2023-06-14T08:18:05;5.88;;;3.97;;
69417;SDS011;56610;48.872;2.400;2023-06-14T08:20:30;4.68;;;3.92;;
69417;SDS011;56610;48.872;2.400;2023-06-14T08:22:57;5.53;;;3.80;;
69417;SDS011;56610;48.872;2.400;2023-06-14T08:25:23;4.68;;;3.85;;
69417;SDS011;56610;48.872;2.400;2023-06-14T08:27:48;7.72;;;4.47;;
69417;SDS011;56610;48.872;2.400;2023-06-14T08:30:16;5.95;;;4.03;;
69417;SDS011;56610;48.872;2.400;2023-06-14T08:32:42;7.30;;;4.10;;
69417;SDS011;56610;48.872;2.400;2023-06-14T08:35:08;5.22;;;3.42;;
69417;SDS011;56610;48.872;2.400;2023-06-14T08:37:37;6.65;;;3.42;;
69417;SDS011;56610;48.872;2.400;2023-06-14T08:40:07;5.70;;;4.20;;
69417;SDS011;56610;48.872;2.400;2023-06-14T08:42:44;4.22;;;3.58;;
69417;SDS011;56610;48.872;2.400;2023-06-14T08:45:13;3.80;;;3.40;;
69417;SDS011;56610;48.872;2.400;2023-06-14T08:47:38;3.30;;;3.00;;
69417;SDS011;56610;48.872;2.400;2023-06-14T08:50:05;8.55;;;3.45;;
69417;SDS011;56610;48.872;2.400;2023-06-14T08:52:33;4.85;;;3.45;;
69417;SDS011;56610;48.872;2.400;2023-06-14T08:55:05;5.10;;;3.22;;
69417;SDS011;56610;48.872;2.400;2023-06-14T08:57:33;3.42;;;3.03;;
69417;SDS011;56610;48.872;2.400;2023-06-14T09:00:03;4.57;;;3.58;;
69417;SDS011;56610;48.872;2.400;2023-06-14T09:02:37;3.50;;;3.20;;
69417;SDS011;56610;48.872;2.400;2023-06-14T09:05:03;4.95;;;3.30;;
69417;SDS011;56610;48.872;2.400;2023-06-14T09:07:29;3.13;;;2.83;;
69417;SDS011;56610;48.872;2.400;2023-06-14T09:10:05;3.92;;;3.05;;
69417;SDS011;56610;48.872;2.400;2023-06-14T09:12:35;3.15;;;2.85;;
69417;SDS011;56610;48.872;2.400;2023-06-14T09:15:01;5.35;;;3.35;;
69417;SDS011;56610;48.872;2.400;2023-06-14T09:17:32;4.20;;;3.05;;
69417;SDS011;56610;48.872;2.400;2023-06-14T09:19:59;4.90;;;3.40;;
69417;SDS011;56610;48.872;2.400;2023-06-14T09:22:24;3.08;;;2.88;;
69417;SDS011;56610;48.872;2.400;2023-06-14T09:24:50;5.10;;;3.17;;
69417;SDS011;56610;48.872;2.400;2023-06-14T09:27:16;3.53;;;3.05;;
69417;SDS011;56610;48.872;2.400;2023-06-14T09:29:41;4.18;;;3.03;;
69417;SDS011;56610;48.872;2.400;2023-06-14T09:32:07;3.55;;;3.17;;
69417;SDS011;56610;48.872;2.400;2023-06-14T09:34:34;3.15;;;2.85;;
69417;SDS011;56610;48.872;2.400;2023-06-14T09:37:00;5.05;;;3.13;;
69417;SDS011;56610;48.872;2.400;2023-06-14T09:39:26;4.72;;;3.20;;
69417;SDS011;56610;48.872;2.400;2023-06-14T09:41:52;3.20;;;2.90;;
69417;SDS011;56610;48.872;2.400;2023-06-14T09:44:17;6.18;;;3.08;;
69417;SDS011;56610;48.872;2.400;2023-06-14T09:49:11;4.88;;;3.05;;
69417;SDS011;56610;48.872;2.400;2023-06-14T09:51:40;3.17;;;2.88;;
69417;SDS011;56610;48.872;2.400;2023-06-14T09:54:14;3.25;;;2.95;;
69417;SDS011;56610;48.872;2.400;2023-06-14T09:56:41;5.93;;;3.22;;
69417;SDS011;56610;48.872;2.400;2023-06-14T09:59:09;8.82;;;3.10;;
69417;SDS011;56610;48.872;2.400;2023-06-14T10:01:35;3.22;;;2.92;;
69417;SDS011;56610;48.872;2.400;2023-06-14T10:04:09;3.00;;;2.72;;
69417;SDS011;56610;48.872;2.400;2023-06-14T10:06:36;3.35;;;2.85;;
69417;SDS011;56610;48.872;2.400;2023-06-14T10:09:04;3.85;;;3.20;;
69417;SDS011;56610;48.872;2.400;2023-06-14T10:11:33;4.40;;;2.85;;
69417;SDS011;56610;48.872;2.400;2023-06-14T10:14:01;3.88;;;2.90;;
69417;SDS011;56610;48.872;2.400;2023-06-14T10:19:29;3.85;;;2.78;;
69417;SDS011;56610;48.872;2.400;2023-06-14T10:22:18;3.42;;;2.90;;
69417;SDS011;56610;48.872;2.400;2023-06-14T10:24:50;3.30;;;3.00;;
69417;SDS011;56610;48.872;2.400;2023-06-14T10:27:15;3.67;;;3.33;;
69417;SDS011;56610;48.872;2.400;2023-06-14T10:30:04;3.05;;;2.85;;
69417;SDS011;56610;48.872;2.400;2023-06-14T10:32:31;2.85;;;2.50;;
69417;SDS011;56610;48.872;2.400;2023-06-14T10:34:58;3.00;;;2.80;;
69417;SDS011;56610;48.872;2.400;2023-06-14T10:37:25;3.30;;;3.00;;
69417;SDS011;56610;48.872;2.400;2023-06-14T10:39:51;3.38;;;3.00;;
69417;SDS011;56610;48.872;2.400;2023-06-14T10:42:18;3.13;;;2.88;;
69417;SDS011;56610;48.872;2.400;2023-06-14T10:44:51;3.30;;;3.00;;
69417;SDS011;56610;48.872;2.400;2023-06-14T10:49:56;4.25;;;3.40;;
69417;SDS011;56610;48.872;2.400;2023-06-14T10:52:44;3.28;;;2.85;;
69417;SDS011;56610;48.872;2.400;2023-06-14T10:55:14;3.47;;;3.17;;
69417;SDS011;56610;48.872;2.400;2023-06-14T10:57:43;4.90;;;3.30;;
69417;SDS011;56610;48.872;2.400;2023-06-14T11:00:20;4.57;;;2.97;;
69417;SDS011;56610;48.872;2.400;2023-06-14T11:03:10;3.08;;;2.78;;
69417;SDS011;56610;48.872;2.400;2023-06-14T11:06:01;3.55;;;3.08;;
69417;SDS011;56610;48.872;2.400;2023-06-14T11:11:52;3.72;;;3.00;;
69417;SDS011;56610;48.872;2.400;2023-06-14T11:14:20;3.25;;;2.92;;
69417;SDS011;56610;48.872;2.400;2023-06-14T11:16:49;3.33;;;2.90;;
69417;SDS011;56610;48.872;2.400;2023-06-14T11:19:15;2.78;;;2.58;;
69417;SDS011;56610;48.872;2.400;2023-06-14T11:21:42;3.35;;;3.15;;
69417;SDS011;56610;48.872;2.400;2023-06-14T11:24:11;3.20;;;2.88;;
69417;SDS011;56610;48.872;2.400;2023-06-14T11:26:37;3.08;;;2.53;;
69417;SDS011;56610;48.872;2.400;2023-06-14T11:29:03;2.90;;;2.70;;
69417;SDS011;56610;48.872;2.400;2023-06-14T11:31:29;2.75;;;2.55;;
69417;SDS011;56610;48.872;2.400;2023-06-14T11:33:58;3.33;;;2.75;;
69417;SDS011;56610;48.872;2.400;2023-06-14T11:36:31;4.15;;;2.90;;
69417;SDS011;56610;48.872;2.400;2023-06-14T11:39:01;2.85;;;2.50;;
69417;SDS011;56610;48.872;2.400;2023-06-14T11:44:03;3.78;;;2.85;;
69417;SDS011;56610;48.872;2.400;2023-06-14T11:46:30;3.15;;;2.78;;
69417;SDS011;56610;48.872;2.400;2023-06-14T11:48:56;3.00;;;2.80;;
69417;SDS011;56610;48.872;2.400;2023-06-14T11:51:22;3.00;;;2.70;;
69417;SDS011;56610;48.872;2.400;2023-06-14T11:53:47;3.55;;;2.35;;
69417;SDS011;56610;48.872;2.400;2023-06-14T11:56:13;3.33;;;3.03;;
69417;SDS011;56610;48.872;2.400;2023-06-14T11:58:39;2.97;;;2.78;;
69417;SDS011;56610;48.872;2.400;2023-06-14T12:01:05;3.20;;;2.90;;
69417;SDS011;56610;48.872;2.400;2023-06-14T12:03:30;2.90;;;2.70;;
69417;SDS011;56610;48.872;2.400;2023-06-14T12:06:05;3.33;;;2.85;;
69417;SDS011;56610;48.872;2.400;2023-06-14T12:08:38;2.78;;;2.55;;
69417;SDS011;56610;48.872;2.400;2023-06-14T12:11:05;3.55;;;2.90;;
69417;SDS011;56610;48.872;2.400;2023-06-14T12:13:33;4.95;;;2.80;;
69417;SDS011;56610;48.872;2.400;2023-06-14T12:15:59;3.15;;;2.85;;
69417;SDS011;56610;48.872;2.400;2023-06-14T12:18:31;2.80;;;2.60;;
69417;SDS011;56610;48.872;2.400;2023-06-14T12:20:59;4.40;;;3.05;;
69417;SDS011;56610;48.872;2.400;2023-06-14T12:23:38;2.92;;;2.72;;
69417;SDS011;56610;48.872;2.400;2023-06-14T12:26:14;3.13;;;2.72;;
69417;SDS011;56610;48.872;2.400;2023-06-14T12:28:41;2.78;;;2.58;;
69417;SDS011;56610;48.872;2.400;2023-06-14T12:31:08;2.72;;;2.53;;
69417;SDS011;56610;48.872;2.400;2023-06-14T12:33:33;3.60;;;2.35;;
69417;SDS011;56610;48.872;2.400;2023-06-14T12:35:59;3.25;;;2.67;;
69417;SDS011;56610;48.872;2.400;2023-06-14T12:38:27;3.05;;;2.85;;
69417;SDS011;56610;48.872;2.400;2023-06-14T12:40:53;4.65;;;2.83;;
69417;SDS011;56610;48.872;2.400;2023-06-14T12:43:19;3.00;;;2.80;;
69417;SDS011;56610;48.872;2.400;2023-06-14T12:45:44;3.28;;;2.72;;
69417;SDS011;56610;48.872;2.400;2023-06-14T12:48:10;2.92;;;2.63;;
69417;SDS011;56610;48.872;2.400;2023-06-14T12:50:36;2.83;;;2.63;;
69417;SDS011;56610;48.872;2.400;2023-06-14T12:53:01;5.38;;;2.75;;
69417;SDS011;56610;48.872;2.400;2023-06-14T12:55:27;2.95;;;2.63;;
69417;SDS011;56610;48.872;2.400;2023-06-14T12:57:52;3.38;;;2.47;;
69417;SDS011;56610;48.872;2.400;2023-06-14T13:00:18;3.10;;;2.55;;
69417;SDS011;56610;48.872;2.400;2023-06-14T13:05:11;4.93;;;2.97;;
69417;SDS011;56610;48.872;2.400;2023-06-14T13:07:36;3.13;;;2.63;;
69417;SDS011;56610;48.872;2.400;2023-06-14T13:10:02;3.53;;;2.70;;
69417;SDS011;56610;48.872;2.400;2023-06-14T13:12:28;2.75;;;2.47;;
69417;SDS011;56610;48.872;2.400;2023-06-14T13:14:54;3.13;;;2.58;;
69417;SDS011;56610;48.872;2.400;2023-06-14T13:17:19;3.78;;;2.85;;
69417;SDS011;56610;48.872;2.400;2023-06-14T13:19:45;2.90;;;2.70;;
69417;SDS011;56610;48.872;2.400;2023-06-14T13:22:11;2.38;;;2.10;;
69417;SDS011;56610;48.872;2.400;2023-06-14T13:24:36;2.60;;;2.40;;
69417;SDS011;56610;48.872;2.400;2023-06-14T13:27:02;3.78;;;2.40;;
69417;SDS011;56610;48.872;2.400;2023-06-14T13:29:28;3.30;;;2.50;;
69417;SDS011;56610;48.872;2.400;2023-06-14T13:31:55;2.80;;;2.60;;
69417;SDS011;56610;48.872;2.400;2023-06-14T13:34:21;2.88;;;2.47;;
69417;SDS011;56610;48.872;2.400;2023-06-14T13:36:46;3.50;;;3.08;;
69417;SDS011;56610;48.872;2.400;2023-06-14T13:39:12;3.33;;;2.83;;
69417;SDS011;56610;48.872;2.400;2023-06-14T13:41:38;2.60;;;2.40;;
69417;SDS011;56610;48.872;2.400;2023-06-14T13:44:03;3.55;;;2.95;;
69417;SDS011;56610;48.872;2.400;2023-06-14T13:46:29;2.95;;;2.67;;
69417;SDS011;56610;48.872;2.400;2023-06-14T13:48:55;2.90;;;2.70;;
69417;SDS011;56610;48.872;2.400;2023-06-14T13:51:22;3.95;;;2.58;;
69417;SDS011;56610;48.872;2.400;2023-06-14T13:53:48;3.17;;;2.88;;
69417;SDS011;56610;48.872;2.400;2023-06-14T13:56:14;3.40;;;2.83;;
69417;SDS011;56610;48.872;2.400;2023-06-14T13:58:40;3.33;;;2.88;;
69417;SDS011;56610;48.872;2.400;2023-06-14T14:01:06;2.90;;;2.70;;
69417;SDS011;56610;48.872;2.400;2023-06-14T14:03:32;3.17;;;2.70;;
69417;SDS011;56610;48.872;2.400;2023-06-14T14:05:58;2.70;;;2.50;;
69417;SDS011;56610;48.872;2.400;2023-06-14T14:08:23;2.80;;;2.60;;
69417;SDS011;56610;48.872;2.400;2023-06-14T14:10:49;3.05;;;2.80;;
69417;SDS011;56610;48.872;2.400;2023-06-14T14:13:15;5.18;;;3.00;;
69417;SDS011;56610;48.872;2.400;2023-06-14T14:15:40;2.88;;;2.70;;
69417;SDS011;56610;48.872;2.400;2023-06-14T14:18:06;3.22;;;2.90;;
69417;SDS011;56610;48.872;2.400;2023-06-14T14:20:32;3.50;;;2.90;;
69417;SDS011;56610;48.872;2.400;2023-06-14T14:22:58;2.88;;;2.67;;
69417;SDS011;56610;48.872;2.400;2023-06-14T14:25:24;3.30;;;2.78;;
69417;SDS011;56610;48.872;2.400;2023-06-14T14:27:50;2.90;;;2.70;;
69417;SDS011;56610;48.872;2.400;2023-06-14T14:30:16;2.78;;;2.58;;
69417;SDS011;56610;48.872;2.400;2023-06-14T14:32:44;3.00;;;2.80;;
69417;SDS011;56610;48.872;2.400;2023-06-14T14:35:10;3.00;;;2.80;;
69417;SDS011;56610;48.872;2.400;2023-06-14T14:37:36;4.30;;;2.72;;
69417;SDS011;56610;48.872;2.400;2023-06-14T14:40:02;3.10;;;2.80;;
69417;SDS011;56610;48.872;2.400;2023-06-14T14:42:28;3.37;;;2.70;;
69417;SDS011;56610;48.872;2.400;2023-06-14T14:44:54;3.10;;;2.80;;
69417;SDS011;56610;48.872;2.400;2023-06-14T14:47:20;3.70;;;2.72;;
69417;SDS011;56610;48.872;2.400;2023-06-14T14:49:45;4.13;;;3.13;;
69417;SDS011;56610;48.872;2.400;2023-06-14T14:52:11;3.63;;;2.95;;
69417;SDS011;56610;48.872;2.400;2023-06-14T14:57:04;4.57;;;3.07;;
69417;SDS011;56610;48.872;2.400;2023-06-14T14:59:30;3.22;;;2.92;;
69417;SDS011;56610;48.872;2.400;2023-06-14T15:01:55;2.80;;;2.60;;
69417;SDS011;56610;48.872;2.400;2023-06-14T15:04:21;3.40;;;2.60;;
69417;SDS011;56610;48.872;2.400;2023-06-14T15:06:47;5.03;;;2.70;;
69417;SDS011;56610;48.872;2.400;2023-06-14T15:09:12;3.47;;;2.85;;
69417;SDS011;56610;48.872;2.400;2023-06-14T15:11:38;2.92;;;2.50;;
69417;SDS011;56610;48.872;2.400;2023-06-14T15:14:03;4.78;;;3.00;;
69417;SDS011;56610;48.872;2.400;2023-06-14T15:16:29;3.28;;;2.97;;